Terminal Aerodrome Forecast
Issued by NWS

Home | Current Version | Previous Version | Text Only | Print | Product List | Glossary On
Versions: 1 2 3 4 5 6 7 8 9 10 11 12 13 14 15 16 17 18 19
000
FTUS46 KLOX 251100
TAFPRB
TAF
KPRB 251126Z 2512/2612 VRB03KT P6SM SCT025 BKN080
     FM251400 26010KT P6SM -RA BKN015 OVC050
     FM251700 29010KT P6SM -SHRA BKN025 OVC060
     FM251900 29014KT P6SM SCT025 BKN060
     FM260200 32015KT P6SM SCT100
     FM260900 32008KT P6SM SCT150=

USA.gov is the U.S. government's official web portal to all federal, state and local government web resources and services.